sensor_id;sensor_type;location;lat;lon;timestamp;pressure;altitude;pressure_sealevel;temperature;humidity
73651;BME280;61944;52.538;6.108;2024-02-26T05:47:26;100230.41;;;4.60;100.00
73651;BME280;61944;52.538;6.108;2024-02-26T05:49:51;100239.94;;;4.46;100.00
73651;BME280;61944;52.538;6.108;2024-02-26T05:52:17;100235.00;;;4.40;100.00
73651;BME280;61944;52.538;6.108;2024-02-26T05:54:42;100231.97;;;4.45;100.00
73651;BME280;61944;52.538;6.108;2024-02-26T05:57:07;100239.44;;;4.57;100.00
73651;BME280;61944;52.538;6.108;2024-02-26T05:59:33;100244.50;;;4.55;100.00
73651;BME280;61944;52.538;6.108;2024-02-26T06:01:58;100243.06;;;4.45;100.00
73651;BME280;61944;52.538;6.108;2024-02-26T06:04:24;100246.19;;;4.43;100.00
73651;BME280;61944;52.538;6.108;2024-02-26T06:06:49;100239.13;;;4.46;100.00
73651;BME280;61944;52.538;6.108;2024-02-26T06:09:14;100253.47;;;4.36;100.00
73651;BME280;61944;52.538;6.108;2024-02-26T06:11:40;100259.88;;;4.52;100.00
73651;BME280;61944;52.538;6.108;2024-02-26T06:14:05;100263.13;;;4.54;100.00
73651;BME280;61944;52.538;6.108;2024-02-26T06:16:31;100264.97;;;4.50;100.00
73651;BME280;61944;52.538;6.108;2024-02-26T06:18:56;100273.75;;;4.52;100.00
73651;BME280;61944;52.538;6.108;2024-02-26T06:21:22;100275.31;;;4.65;100.00
73651;BME280;61944;52.538;6.108;2024-02-26T06:23:47;100275.88;;;4.43;100.00
73651;BME280;61944;52.538;6.108;2024-02-26T06:26:13;100281.88;;;4.45;100.00
73651;BME280;61944;52.538;6.108;2024-02-26T06:28:38;100267.75;;;4.50;100.00
73651;BME280;61944;52.538;6.108;2024-02-26T06:31:05;100282.56;;;4.42;100.00
73651;BME280;61944;52.538;6.108;2024-02-26T06:33:31;100289.00;;;4.46;100.00
73651;BME280;61944;52.538;6.108;2024-02-26T06:35:57;100282.78;;;4.49;100.00
73651;BME280;61944;52.538;6.108;2024-02-26T06:38:22;100293.88;;;4.49;100.00
73651;BME280;61944;52.538;6.108;2024-02-26T06:40:47;100306.28;;;4.55;100.00
73651;BME280;61944;52.538;6.108;2024-02-26T06:43:13;100302.41;;;4.44;100.00
73651;BME280;61944;52.538;6.108;2024-02-26T06:45:38;100316.69;;;4.58;100.00
73651;BME280;61944;52.538;6.108;2024-02-26T06:48:03;100318.44;;;4.51;100.00
73651;BME280;61944;52.538;6.108;2024-02-26T06:50:29;100318.44;;;4.51;100.00
73651;BME280;61944;52.538;6.108;2024-02-26T06:52:54;100314.28;;;5.29;100.00
73651;BME280;61944;52.538;6.108;2024-02-26T06:55:20;100301.44;;;4.64;100.00
73651;BME280;61944;52.538;6.108;2024-02-26T06:57:45;100311.38;;;4.53;100.00
73651;BME280;61944;52.538;6.108;2024-02-26T07:00:11;100312.22;;;4.54;100.00
73651;BME280;61944;52.538;6.108;2024-02-26T07:02:41;100310.72;;;4.44;100.00
73651;BME280;61944;52.538;6.108;2024-02-26T07:05:07;100309.13;;;4.43;100.00
73651;BME280;61944;52.538;6.108;2024-02-26T07:07:33;100316.25;;;4.44;100.00
73651;BME280;61944;52.538;6.108;2024-02-26T07:09:58;100319.22;;;4.63;100.00
73651;BME280;61944;52.538;6.108;2024-02-26T07:12:23;100325.47;;;4.88;100.00
73651;BME280;61944;52.538;6.108;2024-02-26T07:14:49;100326.53;;;4.84;100.00
73651;BME280;61944;52.538;6.108;2024-02-26T07:17:15;100336.78;;;4.96;100.00
73651;BME280;61944;52.538;6.108;2024-02-26T07:19:41;100336.94;;;4.87;100.00
73651;BME280;61944;52.538;6.108;2024-02-26T07:22:07;100335.75;;;4.88;100.00
73651;BME280;61944;52.538;6.108;2024-02-26T07:24:32;100338.72;;;4.95;100.00
73651;BME280;61944;52.538;6.108;2024-02-26T07:27:00;100353.66;;;4.91;100.00
73651;BME280;61944;52.538;6.108;2024-02-26T07:29:25;100354.56;;;4.66;100.00
73651;BME280;61944;52.538;6.108;2024-02-26T07:31:51;100347.50;;;4.69;100.00
73651;BME280;61944;52.538;6.108;2024-02-26T07:34:16;100344.28;;;4.67;100.00
73651;BME280;61944;52.538;6.108;2024-02-26T07:36:42;100350.78;;;4.46;100.00
73651;BME280;61944;52.538;6.108;2024-02-26T07:39:07;100361.53;;;4.48;100.00
73651;BME280;61944;52.538;6.108;2024-02-26T07:41:32;100368.91;;;4.44;100.00
73651;BME280;61944;52.538;6.108;2024-02-26T07:43:58;100360.84;;;4.39;100.00
73651;BME280;61944;52.538;6.108;2024-02-26T07:46:23;100354.72;;;4.45;100.00
73651;BME280;61944;52.538;6.108;2024-02-26T07:48:48;100359.66;;;4.52;100.00
73651;BME280;61944;52.538;6.108;2024-02-26T07:51:14;100369.38;;;4.46;100.00
73651;BME280;61944;52.538;6.108;2024-02-26T07:53:40;100363.25;;;4.53;100.00
73651;BME280;61944;52.538;6.108;2024-02-26T07:56:06;100370.97;;;4.59;100.00
73651;BME280;61944;52.538;6.108;2024-02-26T07:58:33;100375.56;;;4.67;100.00
73651;BME280;61944;52.538;6.108;2024-02-26T08:00:58;100382.16;;;4.63;100.00
73651;BME280;61944;52.538;6.108;2024-02-26T08:03:24;100388.66;;;4.55;100.00
73651;BME280;61944;52.538;6.108;2024-02-26T08:05:51;100386.00;;;4.46;100.00
73651;BME280;61944;52.538;6.108;2024-02-26T08:08:16;100384.34;;;4.57;100.00
73651;BME280;61944;52.538;6.108;2024-02-26T08:10:41;100393.56;;;4.74;100.00
73651;BME280;61944;52.538;6.108;2024-02-26T08:13:07;100390.25;;;4.68;100.00
73651;BME280;61944;52.538;6.108;2024-02-26T08:15:32;100396.38;;;4.61;100.00
73651;BME280;61944;52.538;6.108;2024-02-26T08:18:02;100403.53;;;4.62;100.00
73651;BME280;61944;52.538;6.108;2024-02-26T08:20:29;100409.31;;;4.57;100.00
73651;BME280;61944;52.538;6.108;2024-02-26T08:22:55;100411.59;;;4.67;100.00
73651;BME280;61944;52.538;6.108;2024-02-26T08:25:20;100422.00;;;4.71;100.00
73651;BME280;61944;52.538;6.108;2024-02-26T08:27:45;100419.00;;;4.63;100.00
73651;BME280;61944;52.538;6.108;2024-02-26T08:30:13;100417.16;;;4.67;100.00
73651;BME280;61944;52.538;6.108;2024-02-26T08:32:41;100417.41;;;4.62;100.00
73651;BME280;61944;52.538;6.108;2024-02-26T08:35:07;100414.69;;;4.78;100.00
73651;BME280;61944;52.538;6.108;2024-02-26T08:37:33;100414.63;;;4.62;100.00
73651;BME280;61944;52.538;6.108;2024-02-26T08:39:58;100428.09;;;4.76;100.00
73651;BME280;61944;52.538;6.108;2024-02-26T08:42:24;100424.88;;;4.74;100.00
73651;BME280;61944;52.538;6.108;2024-02-26T08:44:49;100426.81;;;4.86;100.00
73651;BME280;61944;52.538;6.108;2024-02-26T08:47:14;100424.38;;;4.84;100.00
73651;BME280;61944;52.538;6.108;2024-02-26T08:49:45;100435.47;;;4.84;100.00
73651;BME280;61944;52.538;6.108;2024-02-26T08:52:10;100435.03;;;4.82;100.00
73651;BME280;61944;52.538;6.108;2024-02-26T08:54:36;100428.78;;;4.85;100.00
73651;BME280;61944;52.538;6.108;2024-02-26T08:57:01;100431.44;;;4.82;100.00
73651;BME280;61944;52.538;6.108;2024-02-26T08:59:26;100432.94;;;4.92;100.00
73651;BME280;61944;52.538;6.108;2024-02-26T09:01:52;100442.75;;;4.89;100.00
73651;BME280;61944;52.538;6.108;2024-02-26T09:04:17;100438.50;;;4.92;100.00
73651;BME280;61944;52.538;6.108;2024-02-26T09:06:42;100449.44;;;5.00;100.00
73651;BME280;61944;52.538;6.108;2024-02-26T09:09:08;100450.69;;;5.03;100.00
73651;BME280;61944;52.538;6.108;2024-02-26T09:11:33;100435.25;;;4.89;100.00
73651;BME280;61944;52.538;6.108;2024-02-26T09:13:58;100444.38;;;4.90;100.00
73651;BME280;61944;52.538;6.108;2024-02-26T09:16:30;100455.13;;;4.92;100.00
73651;BME280;61944;52.538;6.108;2024-02-26T09:18:56;100457.53;;;4.93;100.00
73651;BME280;61944;52.538;6.108;2024-02-26T09:21:22;100451.31;;;4.84;100.00
73651;BME280;61944;52.538;6.108;2024-02-26T09:23:52;100455.94;;;4.92;100.00
73651;BME280;61944;52.538;6.108;2024-02-26T09:26:18;100462.41;;;4.96;100.00
73651;BME280;61944;52.538;6.108;2024-02-26T09:28:44;100468.84;;;5.00;100.00
73651;BME280;61944;52.538;6.108;2024-02-26T09:31:09;100482.94;;;4.95;100.00
73651;BME280;61944;52.538;6.108;2024-02-26T09:33:35;100471.19;;;4.98;100.00
73651;BME280;61944;52.538;6.108;2024-02-26T09:36:01;100476.69;;;5.11;100.00
73651;BME280;61944;52.538;6.108;2024-02-26T09:38:26;100479.00;;;5.08;100.00
73651;BME280;61944;52.538;6.108;2024-02-26T09:40:52;100482.72;;;5.13;100.00
73651;BME280;61944;52.538;6.108;2024-02-26T09:43:23;100489.41;;;5.12;100.00
73651;BME280;61944;52.538;6.108;2024-02-26T09:45:53;100489.84;;;5.14;100.00
73651;BME280;61944;52.538;6.108;2024-02-26T09:48:18;100498.91;;;5.11;100.00
73651;BME280;61944;52.538;6.108;2024-02-26T09:50:45;100502.13;;;5.13;100.00
73651;BME280;61944;52.538;6.108;2024-02-26T09:53:11;100508.22;;;5.18;100.00
73651;BME280;61944;52.538;6.108;2024-02-26T09:55:37;100497.50;;;5.17;100.00
73651;BME280;61944;52.538;6.108;2024-02-26T09:58:05;100502.22;;;5.16;100.00
73651;BME280;61944;52.538;6.108;2024-02-26T10:00:31;100507.88;;;5.20;100.00
73651;BME280;61944;52.538;6.108;2024-02-26T10:03:03;100504.50;;;5.26;100.00
73651;BME280;61944;52.538;6.108;2024-02-26T10:05:29;100528.22;;;5.24;100.00
73651;BME280;61944;52.538;6.108;2024-02-26T10:07:57;100527.19;;;5.16;100.00
73651;BME280;61944;52.538;6.108;2024-02-26T10:10:23;100530.88;;;5.20;100.00
73651;BME280;61944;52.538;6.108;2024-02-26T10:12:48;100535.25;;;5.34;100.00
73651;BME280;61944;52.538;6.108;2024-02-26T10:15:14;100542.28;;;5.43;100.00
73651;BME280;61944;52.538;6.108;2024-02-26T10:17:40;100540.69;;;5.42;100.00
73651;BME280;61944;52.538;6.108;2024-02-26T10:22:38;100552.22;;;5.44;100.00
73651;BME280;61944;52.538;6.108;2024-02-26T10:25:04;100549.47;;;5.44;100.00
73651;BME280;61944;52.538;6.108;2024-02-26T10:27:29;100558.44;;;5.54;100.00
73651;BME280;61944;52.538;6.108;2024-02-26T10:29:56;100566.63;;;5.62;100.00
73651;BME280;61944;52.538;6.108;2024-02-26T10:32:22;100576.31;;;5.68;100.00
73651;BME280;61944;52.538;6.108;2024-02-26T10:34:47;100571.06;;;5.79;100.00
73651;BME280;61944;52.538;6.108;2024-02-26T10:37:13;100574.63;;;5.64;100.00
73651;BME280;61944;52.538;6.108;2024-02-26T10:39:39;100576.22;;;5.65;100.00
73651;BME280;61944;52.538;6.108;2024-02-26T10:42:04;100581.66;;;5.74;100.00
73651;BME280;61944;52.538;6.108;2024-02-26T10:44:34;100589.06;;;5.69;100.00
73651;BME280;61944;52.538;6.108;2024-02-26T10:47:00;100593.09;;;5.72;100.00
73651;BME280;61944;52.538;6.108;2024-02-26T10:49:25;100592.84;;;5.77;100.00
73651;BME280;61944;52.538;6.108;2024-02-26T10:51:55;100590.78;;;5.74;100.00
73651;BME280;61944;52.538;6.108;2024-02-26T10:54:24;100605.59;;;5.78;100.00
73651;BME280;61944;52.538;6.108;2024-02-26T10:56:51;100609.47;;;5.89;100.00
73651;BME280;61944;52.538;6.108;2024-02-26T10:59:17;100609.28;;;5.82;100.00
73651;BME280;61944;52.538;6.108;2024-02-26T11:01:47;100610.41;;;5.81;100.00
73651;BME280;61944;52.538;6.108;2024-02-26T11:04:15;100613.47;;;5.76;100.00
73651;BME280;61944;52.538;6.108;2024-02-26T11:06:41;100613.47;;;5.76;100.00
73651;BME280;61944;52.538;6.108;2024-02-26T11:09:08;100611.16;;;5.66;100.00
73651;BME280;61944;52.538;6.108;2024-02-26T11:11:38;100615.53;;;5.79;100.00
73651;BME280;61944;52.538;6.108;2024-02-26T11:14:06;100618.31;;;5.67;100.00
73651;BME280;61944;52.538;6.108;2024-02-26T11:16:34;100616.69;;;5.78;100.00
73651;BME280;61944;52.538;6.108;2024-02-26T11:19:00;100622.44;;;5.85;100.00
73651;BME280;61944;52.538;6.108;2024-02-26T11:21:27;100622.91;;;5.87;100.00
73651;BME280;61944;52.538;6.108;2024-02-26T11:23:56;100630.78;;;5.85;100.00
73651;BME280;61944;52.538;6.108;2024-02-26T11:26:23;100634.41;;;5.74;100.00
73651;BME280;61944;52.538;6.108;2024-02-26T11:28:50;100637.50;;;5.84;100.00
73651;BME280;61944;52.538;6.108;2024-02-26T11:31:16;100642.22;;;5.84;100.00
73651;BME280;61944;52.538;6.108;2024-02-26T11:33:43;100652.00;;;5.78;100.00
73651;BME280;61944;52.538;6.108;2024-02-26T11:36:09;100646.31;;;5.74;100.00
73651;BME280;61944;52.538;6.108;2024-02-26T11:38:35;100649.56;;;5.76;100.00
73651;BME280;61944;52.538;6.108;2024-02-26T11:41:01;100653.00;;;5.85;100.00
73651;BME280;61944;52.538;6.108;2024-02-26T11:43:49;100652.09;;;5.81;100.00
73651;BME280;61944;52.538;6.108;2024-02-26T11:48:51;100659.88;;;5.76;100.00
73651;BME280;61944;52.538;6.108;2024-02-26T11:51:25;100658.81;;;5.80;100.00
73651;BME280;61944;52.538;6.108;2024-02-26T11:53:50;100653.41;;;5.72;100.00
73651;BME280;61944;52.538;6.108;2024-02-26T11:58:59;100660.88;;;5.83;100.00
73651;BME280;61944;52.538;6.108;2024-02-26T12:01:39;100652.09;;;5.81;100.00
73651;BME280;61944;52.538;6.108;2024-02-26T12:04:12;100664.13;;;5.98;100.00
73651;BME280;61944;52.538;6.108;2024-02-26T12:06:50;100653.72;;;5.82;100.00
73651;BME280;61944;52.538;6.108;2024-02-26T12:09:36;100657.63;;;5.81;100.00
73651;BME280;61944;52.538;6.108;2024-02-26T12:12:09;100661.13;;;5.78;100.00
73651;BME280;61944;52.538;6.108;2024-02-26T12:14:38;100658.44;;;5.82;100.00
73651;BME280;61944;52.538;6.108;2024-02-26T12:17:04;100673.38;;;5.77;100.00
73651;BME280;61944;52.538;6.108;2024-02-26T12:19:33;100663.31;;;5.85;100.00
73651;BME280;61944;52.538;6.108;2024-02-26T12:21:59;100670.69;;;5.93;100.00
73651;BME280;61944;52.538;6.108;2024-02-26T12:24:25;100679.63;;;5.99;100.00
73651;BME280;61944;52.538;6.108;2024-02-26T12:26:50;100676.59;;;5.91;100.00
73651;BME280;61944;52.538;6.108;2024-02-26T12:29:15;100686.56;;;5.93;100.00
73651;BME280;61944;52.538;6.108;2024-02-26T12:31:41;100693.72;;;5.94;100.00
73651;BME280;61944;52.538;6.108;2024-02-26T12:34:07;100695.38;;;5.95;100.00
73651;BME280;61944;52.538;6.108;2024-02-26T12:36:35;100694.44;;;5.90;100.00
73651;BME280;61944;52.538;6.108;2024-02-26T12:39:02;100683.56;;;5.98;100.00
73651;BME280;61944;52.538;6.108;2024-02-26T12:41:28;100694.41;;;6.03;100.00
73651;BME280;61944;52.538;6.108;2024-02-26T12:43:55;100697.91;;;6.00;100.00
73651;BME280;61944;52.538;6.108;2024-02-26T12:46:21;100696.63;;;6.09;100.00
73651;BME280;61944;52.538;6.108;2024-02-26T12:48:47;100702.22;;;5.97;100.00
73651;BME280;61944;52.538;6.108;2024-02-26T12:51:14;100706.44;;;6.07;100.00
73651;BME280;61944;52.538;6.108;2024-02-26T12:53:41;100711.53;;;6.05;100.00
73651;BME280;61944;52.538;6.108;2024-02-26T12:56:10;100720.31;;;6.19;100.00
73651;BME280;61944;52.538;6.108;2024-02-26T12:58:37;100710.59;;;6.13;100.00
73651;BME280;61944;52.538;6.108;2024-02-26T13:01:04;100719.22;;;5.96;100.00
73651;BME280;61944;52.538;6.108;2024-02-26T13:03:31;100730.06;;;6.01;100.00
73651;BME280;61944;52.538;6.108;2024-02-26T13:05:57;100724.63;;;6.04;100.00
73651;BME280;61944;52.538;6.108;2024-02-26T13:08:22;100722.19;;;6.03;100.00
73651;BME280;61944;52.538;6.108;2024-02-26T13:10:49;100732.16;;;6.04;100.00
73651;BME280;61944;52.538;6.108;2024-02-26T13:13:17;100732.97;;;6.04;100.00
73651;BME280;61944;52.538;6.108;2024-02-26T13:15:43;100734.03;;;6.00;100.00
73651;BME280;61944;52.538;6.108;2024-02-26T13:18:13;100736.56;;;6.05;100.00
73651;BME280;61944;52.538;6.108;2024-02-26T13:20:39;100742.56;;;6.07;100.00
73651;BME280;61944;52.538;6.108;2024-02-26T13:23:10;100748.84;;;6.04;100.00
73651;BME280;61944;52.538;6.108;2024-02-26T13:25:36;100747.31;;;6.06;100.00
73651;BME280;61944;52.538;6.108;2024-02-26T13:28:14;100746.53;;;6.06;100.00
73651;BME280;61944;52.538;6.108;2024-02-26T13:30:41;100743.28;;;6.04;100.00
73651;BME280;61944;52.538;6.108;2024-02-26T13:33:11;100755.53;;;6.03;100.00
73651;BME280;61944;52.538;6.108;2024-02-26T13:35:36;100751.16;;;6.02;100.00
73651;BME280;61944;52.538;6.108;2024-02-26T13:38:04;100753.47;;;6.00;100.00
73651;BME280;61944;52.538;6.108;2024-02-26T13:40:30;100755.31;;;6.08;100.00
73651;BME280;61944;52.538;6.108;2024-02-26T13:42:55;100748.72;;;6.00;100.00
73651;BME280;61944;52.538;6.108;2024-02-26T13:45:20;100756.00;;;6.05;100.00
73651;BME280;61944;52.538;6.108;2024-02-26T13:47:46;100751.81;;;6.11;100.00
73651;BME280;61944;52.538;6.108;2024-02-26T13:50:11;100762.47;;;6.09;100.00
73651;BME280;61944;52.538;6.108;2024-02-26T13:52:36;100753.00;;;6.10;100.00
73651;BME280;61944;52.538;6.108;2024-02-26T13:55:02;100764.81;;;6.07;100.00
73651;BME280;61944;52.538;6.108;2024-02-26T13:57:28;100774.31;;;6.06;100.00
73651;BME280;61944;52.538;6.108;2024-02-26T13:59:54;100764.34;;;6.05;100.00
73651;BME280;61944;52.538;6.108;2024-02-26T14:02:19;100772.44;;;6.10;100.00
73651;BME280;61944;52.538;6.108;2024-02-26T14:04:46;100766.19;;;6.01;100.00
73651;BME280;61944;52.538;6.108;2024-02-26T14:07:12;100774.31;;;6.06;100.00
73651;BME280;61944;52.538;6.108;2024-02-26T14:09:37;100780.78;;;6.10;100.00
73651;BME280;61944;52.538;6.108;2024-02-26T14:12:03;100775.22;;;6.10;100.00
73651;BME280;61944;52.538;6.108;2024-02-26T14:14:28;100777.56;;;6.08;100.00
73651;BME280;61944;52.538;6.108;2024-02-26T14:16:54;100784.03;;;6.00;100.00
73651;BME280;61944;52.538;6.108;2024-02-26T14:19:19;100784.81;;;6.65;100.00
73651;BME280;61944;52.538;6.108;2024-02-26T14:21:45;100793.00;;;6.46;100.00
73651;BME280;61944;52.538;6.108;2024-02-26T14:24:10;100790.72;;;6.23;100.00
73651;BME280;61944;52.538;6.108;2024-02-26T14:26:35;100798.31;;;6.39;100.00
73651;BME280;61944;52.538;6.108;2024-02-26T14:29:01;100793.28;;;6.28;100.00
73651;BME280;61944;52.538;6.108;2024-02-26T14:31:26;100792.44;;;6.28;100.00
73651;BME280;61944;52.538;6.108;2024-02-26T14:33:52;100792.81;;;6.26;100.00
73651;BME280;61944;52.538;6.108;2024-02-26T14:36:19;100801.22;;;6.30;100.00
73651;BME280;61944;52.538;6.108;2024-02-26T14:38:46;100805.41;;;6.24;100.00
73651;BME280;61944;52.538;6.108;2024-02-26T14:41:11;100800.78;;;6.28;100.00
73651;BME280;61944;52.538;6.108;2024-02-26T14:43:36;100815.59;;;6.32;100.00
73651;BME280;61944;52.538;6.108;2024-02-26T14:46:02;100814.22;;;6.26;100.00
73651;BME280;61944;52.538;6.108;2024-02-26T14:48:27;100824.31;;;6.30;100.00
73651;BME280;61944;52.538;6.108;2024-02-26T14:50:54;100818.50;;;6.23;100.00
73651;BME280;61944;52.538;6.108;2024-02-26T14:53:27;100838.78;;;6.24;100.00
73651;BME280;61944;52.538;6.108;2024-02-26T14:55:52;100834.97;;;6.16;100.00
73651;BME280;61944;52.538;6.108;2024-02-26T14:58:17;100832.41;;;6.11;100.00
73651;BME280;61944;52.538;6.108;2024-02-26T15:00:43;100846.34;;;5.99;100.00
73651;BME280;61944;52.538;6.108;2024-02-26T15:03:08;100845.63;;;6.02;100.00
73651;BME280;61944;52.538;6.108;2024-02-26T15:05:34;100859.06;;;6.00;100.00
73651;BME280;61944;52.538;6.108;2024-02-26T15:07:59;100853.50;;;6.00;100.00
73651;BME280;61944;52.538;6.108;2024-02-26T15:10:25;100867.16;;;6.05;100.00
73651;BME280;61944;52.538;6.108;2024-02-26T15:12:51;100855.94;;;6.01;100.00
73651;BME280;61944;52.538;6.108;2024-02-26T15:15:22;100858.47;;;6.06;100.00
73651;BME280;61944;52.538;6.108;2024-02-26T15:17:48;100864.75;;;6.03;100.00
73651;BME280;61944;52.538;6.108;2024-02-26T15:20:15;100870.31;;;6.03;100.00
73651;BME280;61944;52.538;6.108;2024-02-26T15:22:40;100881.28;;;6.00;100.00
73651;BME280;61944;52.538;6.108;2024-02-26T15:25:06;100882.47;;;5.99;100.00
73651;BME280;61944;52.538;6.108;2024-02-26T15:27:32;100885.56;;;5.97;100.00
73651;BME280;61944;52.538;6.108;2024-02-26T15:29:57;100893.22;;;6.00;100.00
73651;BME280;61944;52.538;6.108;2024-02-26T15:32:24;100898.66;;;6.09;100.00
73651;BME280;61944;52.538;6.108;2024-02-26T15:34:50;100903.53;;;6.00;100.00
73651;BME280;61944;52.538;6.108;2024-02-26T15:37:16;100911.22;;;5.94;100.00
73651;BME280;61944;52.538;6.108;2024-02-26T15:39:41;100907.22;;;6.04;100.00
73651;BME280;61944;52.538;6.108;2024-02-26T15:42:06;100915.28;;;5.84;100.00
73651;BME280;61944;52.538;6.108;2024-02-26T15:44:32;100915.97;;;5.94;100.00
73651;BME280;61944;52.538;6.108;2024-02-26T15:46:57;100913.91;;;5.90;100.00
73651;BME280;61944;52.538;6.108;2024-02-26T15:49:23;100918.75;;;5.94;100.00
73651;BME280;61944;52.538;6.108;2024-02-26T15:51:49;100931.59;;;5.86;100.00
73651;BME280;61944;52.538;6.108;2024-02-26T15:54:14;100929.66;;;5.86;100.00
73651;BME280;61944;52.538;6.108;2024-02-26T15:56:40;100931.84;;;5.93;100.00
73651;BME280;61944;52.538;6.108;2024-02-26T15:59:06;100933.81;;;5.93;100.00
73651;BME280;61944;52.538;6.108;2024-02-26T16:01:31;100936.34;;;5.85;100.00
73651;BME280;61944;52.538;6.108;2024-02-26T16:03:56;100937.50;;;5.84;100.00
73651;BME280;61944;52.538;6.108;2024-02-26T16:06:32;100944.66;;;5.85;100.00
73651;BME280;61944;52.538;6.108;2024-02-26T16:08:58;100954.03;;;5.81;100.00
73651;BME280;61944;52.538;6.108;2024-02-26T16:11:24;100955.88;;;5.77;100.00
73651;BME280;61944;52.538;6.108;2024-02-26T16:13:57;100962.97;;;5.86;100.00
73651;BME280;61944;52.538;6.108;2024-02-26T16:16:25;100966.91;;;5.85;100.00
73651;BME280;61944;52.538;6.108;2024-02-26T16:18:58;100968.50;;;5.74;100.00
73651;BME280;61944;52.538;6.108;2024-02-26T16:21:30;100964.78;;;5.70;100.00
73651;BME280;61944;52.538;6.108;2024-02-26T16:23:55;100979.59;;;5.74;100.00
73651;BME280;61944;52.538;6.108;2024-02-26T16:26:20;100976.34;;;5.72;100.00
73651;BME280;61944;52.538;6.108;2024-02-26T16:28:46;100979.28;;;5.88;100.00
73651;BME280;61944;52.538;6.108;2024-02-26T16:31:11;100977.00;;;5.57;100.00
73651;BME280;61944;52.538;6.108;2024-02-26T16:33:37;100982.63;;;5.27;100.00
73651;BME280;61944;52.538;6.108;2024-02-26T16:36:02;100985.78;;;5.25;100.00
73651;BME280;61944;52.538;6.108;2024-02-26T16:38:30;100989.56;;;5.21;100.00
73651;BME280;61944;52.538;6.108;2024-02-26T16:40:55;100993.75;;;5.27;100.00
73651;BME280;61944;52.538;6.108;2024-02-26T16:43:21;100995.06;;;5.29;100.00
73651;BME280;61944;52.538;6.108;2024-02-26T16:45:46;100998.47;;;5.05;100.00
73651;BME280;61944;52.538;6.108;2024-02-26T16:48:12;101005.94;;;5.14;100.00
73651;BME280;61944;52.538;6.108;2024-02-26T16:50:38;101002.81;;;5.15;100.00
73651;BME280;61944;52.538;6.108;2024-02-26T16:53:03;101007.97;;;5.25;100.00
73651;BME280;61944;52.538;6.108;2024-02-26T16:55:28;101012.97;;;5.32;100.00
73651;BME280;61944;52.538;6.108;2024-02-26T16:57:54;101015.13;;;5.05;100.00
73651;BME280;61944;52.538;6.108;2024-02-26T17:00:21;101028.06;;;5.01;100.00
73651;BME280;61944;52.538;6.108;2024-02-26T17:02:46;101036.84;;;5.03;100.00
73651;BME280;61944;52.538;6.108;2024-02-26T17:05:13;101038.50;;;5.04;100.00
73651;BME280;61944;52.538;6.108;2024-02-26T17:07:40;101036.19;;;5.06;100.00
73651;BME280;61944;52.538;6.108;2024-02-26T17:10:07;101033.97;;;5.00;100.00
73651;BME280;61944;52.538;6.108;2024-02-26T17:12:33;101034.78;;;4.71;100.00
73651;BME280;61944;52.538;6.108;2024-02-26T17:14:58;101038.13;;;4.85;100.00
73651;BME280;61944;52.538;6.108;2024-02-26T17:17:24;101033.91;;;4.79;100.00
73651;BME280;61944;52.538;6.108;2024-02-26T17:19:49;101037.44;;;4.88;100.00
73651;BME280;61944;52.538;6.108;2024-02-26T17:22:14;101047.78;;;4.79;100.00
73651;BME280;61944;52.538;6.108;2024-02-26T17:24:40;101055.41;;;4.82;100.00
73651;BME280;61944;52.538;6.108;2024-02-26T17:27:06;101060.25;;;4.94;100.00
73651;BME280;61944;52.538;6.108;2024-02-26T17:29:31;101063.09;;;4.85;100.00
73651;BME280;61944;52.538;6.108;2024-02-26T17:31:56;101072.69;;;4.87;100.00
73651;BME280;61944;52.538;6.108;2024-02-26T17:34:22;101082.03;;;4.83;100.00
73651;BME280;61944;52.538;6.108;2024-02-26T17:36:47;101075.59;;;4.91;100.00
73651;BME280;61944;52.538;6.108;2024-02-26T17:39:13;101081.63;;;4.93;100.00
73651;BME280;61944;52.538;6.108;2024-02-26T17:41:39;101092.16;;;4.79;100.00
73651;BME280;61944;52.538;6.108;2024-02-26T17:44:04;101101.72;;;4.90;100.00
73651;BME280;61944;52.538;6.108;2024-02-26T17:46:30;101112.41;;;4.71;100.00
73651;BME280;61944;52.538;6.108;2024-02-26T17:48:56;101108.97;;;4.74;100.00
73651;BME280;61944;52.538;6.108;2024-02-26T17:51:21;101118.06;;;4.83;100.00
73651;BME280;61944;52.538;6.108;2024-02-26T17:53:47;101127.81;;;4.89;100.00
73651;BME280;61944;52.538;6.108;2024-02-26T17:56:12;101131.06;;;4.91;100.00
73651;BME280;61944;52.538;6.108;2024-02-26T17:58:39;101131.59;;;4.84;100.00
73651;BME280;61944;52.538;6.108;2024-02-26T18:01:07;101137.97;;;4.76;100.00
73651;BME280;61944;52.538;6.108;2024-02-26T18:03:32;101139.94;;;4.76;100.00
73651;BME280;61944;52.538;6.108;2024-02-26T18:05:57;101137.44;;;4.92;100.00
73651;BME280;61944;52.538;6.108;2024-02-26T18:08:25;101144.31;;;4.85;100.00
73651;BME280;61944;52.538;6.108;2024-02-26T18:10:50;101148.09;;;4.81;100.00
73651;BME280;61944;52.538;6.108;2024-02-26T18:13:18;101154.34;;;4.69;100.00
73651;BME280;61944;52.538;6.108;2024-02-26T18:15:43;101148.28;;;4.76;100.00
73651;BME280;61944;52.538;6.108;2024-02-26T18:18:09;101149.06;;;4.85;100.00
73651;BME280;61944;52.538;6.108;2024-02-26T18:20:35;101160.44;;;4.92;100.00
73651;BME280;61944;52.538;6.108;2024-02-26T18:23:00;101167.31;;;4.86;100.00
73651;BME280;61944;52.538;6.108;2024-02-26T18:25:25;101172.38;;;4.84;100.00
73651;BME280;61944;52.538;6.108;2024-02-26T18:27:52;101171.63;;;4.75;100.00
73651;BME280;61944;52.538;6.108;2024-02-26T18:30:17;101178.13;;;4.79;100.00
73651;BME280;61944;52.538;6.108;2024-02-26T18:32:43;101174.53;;;4.69;100.00
73651;BME280;61944;52.538;6.108;2024-02-26T18:35:11;101187.53;;;4.86;100.00
73651;BME280;61944;52.538;6.108;2024-02-26T18:37:37;101197.53;;;4.79;100.00
73651;BME280;61944;52.538;6.108;2024-02-26T18:40:03;101198.66;;;4.78;100.00